sensor_id;sensor_type;location;lat;lon;timestamp;P1;durP1;ratioP1;P2;durP2;ratioP2
20067;SDS011;10194;50.824;7.134;2023-02-01T00:00:20;212.83;;;188.53;;
20067;SDS011;10194;50.824;7.134;2023-02-01T00:02:46;215.43;;;182.80;;
20067;SDS011;10194;50.824;7.134;2023-02-01T00:05:12;220.23;;;189.27;;
20067;SDS011;10194;50.824;7.134;2023-02-01T00:07:38;216.57;;;185.80;;
20067;SDS011;10194;50.824;7.134;2023-02-01T00:10:04;227.47;;;193.50;;
20067;SDS011;10194;50.824;7.134;2023-02-01T00:12:31;220.60;;;191.47;;
20067;SDS011;10194;50.824;7.134;2023-02-01T00:14:57;211.07;;;181.63;;
20067;SDS011;10194;50.824;7.134;2023-02-01T00:17:23;213.67;;;186.87;;
20067;SDS011;10194;50.824;7.134;2023-02-01T00:19:49;214.27;;;184.23;;
20067;SDS011;10194;50.824;7.134;2023-02-01T00:22:15;216.47;;;188.07;;
20067;SDS011;10194;50.824;7.134;2023-02-01T00:24:41;213.30;;;189.53;;
20067;SDS011;10194;50.824;7.134;2023-02-01T00:27:07;213.47;;;177.40;;
20067;SDS011;10194;50.824;7.134;2023-02-01T00:29:32;212.63;;;179.07;;
20067;SDS011;10194;50.824;7.134;2023-02-01T00:31:58;209.37;;;174.83;;
20067;SDS011;10194;50.824;7.134;2023-02-01T00:34:24;217.33;;;182.90;;
20067;SDS011;10194;50.824;7.134;2023-02-01T00:36:50;215.47;;;176.57;;
20067;SDS011;10194;50.824;7.134;2023-02-01T00:39:15;209.13;;;178.20;;
20067;SDS011;10194;50.824;7.134;2023-02-01T00:41:41;210.47;;;179.23;;
20067;SDS011;10194;50.824;7.134;2023-02-01T00:44:07;210.97;;;178.77;;
20067;SDS011;10194;50.824;7.134;2023-02-01T00:46:33;210.73;;;184.33;;
20067;SDS011;10194;50.824;7.134;2023-02-01T00:48:59;214.57;;;186.37;;
20067;SDS011;10194;50.824;7.134;2023-02-01T00:51:26;225.53;;;201.87;;
20067;SDS011;10194;50.824;7.134;2023-02-01T00:53:54;215.23;;;191.97;;
20067;SDS011;10194;50.824;7.134;2023-02-01T00:56:20;216.83;;;193.77;;
20067;SDS011;10194;50.824;7.134;2023-02-01T00:58:46;218.53;;;195.30;;
20067;SDS011;10194;50.824;7.134;2023-02-01T01:03:44;213.03;;;190.77;;
20067;SDS011;10194;50.824;7.134;2023-02-01T01:06:15;214.47;;;191.43;;
20067;SDS011;10194;50.824;7.134;2023-02-01T01:08:46;214.47;;;191.20;;
20067;SDS011;10194;50.824;7.134;2023-02-01T01:11:14;215.33;;;191.93;;
20067;SDS011;10194;50.824;7.134;2023-02-01T01:13:45;213.43;;;190.63;;
20067;SDS011;10194;50.824;7.134;2023-02-01T01:16:12;212.97;;;190.13;;
20067;SDS011;10194;50.824;7.134;2023-02-01T01:18:39;213.00;;;189.53;;
20067;SDS011;10194;50.824;7.134;2023-02-01T01:21:05;215.00;;;192.67;;
20067;SDS011;10194;50.824;7.134;2023-02-01T01:23:32;207.03;;;184.73;;
20067;SDS011;10194;50.824;7.134;2023-02-01T01:25:59;213.60;;;190.27;;
20067;SDS011;10194;50.824;7.134;2023-02-01T01:28:25;215.90;;;192.70;;
20067;SDS011;10194;50.824;7.134;2023-02-01T01:30:51;208.90;;;186.47;;
20067;SDS011;10194;50.824;7.134;2023-02-01T01:33:17;209.23;;;187.27;;
20067;SDS011;10194;50.824;7.134;2023-02-01T01:35:42;213.80;;;190.97;;
20067;SDS011;10194;50.824;7.134;2023-02-01T01:38:09;214.43;;;190.83;;
20067;SDS011;10194;50.824;7.134;2023-02-01T01:40:36;218.17;;;193.40;;
20067;SDS011;10194;50.824;7.134;2023-02-01T01:43:02;211.27;;;188.93;;
20067;SDS011;10194;50.824;7.134;2023-02-01T01:48:05;213.00;;;190.73;;
20067;SDS011;10194;50.824;7.134;2023-02-01T01:50:39;215.00;;;192.63;;
20067;SDS011;10194;50.824;7.134;2023-02-01T01:53:13;212.43;;;189.47;;
20067;SDS011;10194;50.824;7.134;2023-02-01T01:55:44;217.83;;;194.93;;
20067;SDS011;10194;50.824;7.134;2023-02-01T01:58:15;217.27;;;194.90;;
20067;SDS011;10194;50.824;7.134;2023-02-01T02:00:45;217.63;;;194.73;;
20067;SDS011;10194;50.824;7.134;2023-02-01T02:06:00;220.13;;;197.30;;
20067;SDS011;10194;50.824;7.134;2023-02-01T02:08:32;220.73;;;197.60;;
20067;SDS011;10194;50.824;7.134;2023-02-01T02:10:58;219.37;;;196.63;;
20067;SDS011;10194;50.824;7.134;2023-02-01T02:13:24;215.63;;;193.40;;
20067;SDS011;10194;50.824;7.134;2023-02-01T02:28:19;228.57;;;205.20;;
20067;SDS011;10194;50.824;7.134;2023-02-01T02:40:02;227.13;;;204.00;;
20067;SDS011;10194;50.824;7.134;2023-02-01T02:43:17;220.57;;;197.40;;
20067;SDS011;10194;50.824;7.134;2023-02-01T02:49:11;221.20;;;198.47;;
20067;SDS011;10194;50.824;7.134;2023-02-01T02:51:45;221.10;;;197.77;;
20067;SDS011;10194;50.824;7.134;2023-02-01T02:54:37;224.33;;;199.97;;
20067;SDS011;10194;50.824;7.134;2023-02-01T02:57:34;221.67;;;198.37;;
20067;SDS011;10194;50.824;7.134;2023-02-01T03:00:19;227.00;;;203.67;;
20067;SDS011;10194;50.824;7.134;2023-02-01T03:03:12;224.67;;;201.37;;
20067;SDS011;10194;50.824;7.134;2023-02-01T03:05:56;221.60;;;198.57;;
20067;SDS011;10194;50.824;7.134;2023-02-01T03:08:25;220.80;;;197.33;;
20067;SDS011;10194;50.824;7.134;2023-02-01T03:10:55;220.43;;;197.13;;
20067;SDS011;10194;50.824;7.134;2023-02-01T03:16:08;223.53;;;199.97;;
20067;SDS011;10194;50.824;7.134;2023-02-01T03:18:55;226.30;;;202.30;;
20067;SDS011;10194;50.824;7.134;2023-02-01T03:21:41;230.30;;;206.63;;
20067;SDS011;10194;50.824;7.134;2023-02-01T03:29:50;223.67;;;200.67;;
20067;SDS011;10194;50.824;7.134;2023-02-01T03:32:32;226.73;;;202.97;;
20067;SDS011;10194;50.824;7.134;2023-02-01T03:35:20;224.63;;;201.53;;
20067;SDS011;10194;50.824;7.134;2023-02-01T03:40:44;222.67;;;199.23;;
20067;SDS011;10194;50.824;7.134;2023-02-01T03:43:37;217.33;;;194.33;;
20067;SDS011;10194;50.824;7.134;2023-02-01T03:46:17;223.17;;;199.73;;
20067;SDS011;10194;50.824;7.134;2023-02-01T03:48:50;225.53;;;201.87;;
20067;SDS011;10194;50.824;7.134;2023-02-01T03:51:18;221.67;;;198.13;;
20067;SDS011;10194;50.824;7.134;2023-02-01T03:53:45;218.90;;;195.70;;
20067;SDS011;10194;50.824;7.134;2023-02-01T03:56:14;220.53;;;197.27;;
20067;SDS011;10194;50.824;7.134;2023-02-01T03:58:42;222.33;;;198.47;;
20067;SDS011;10194;50.824;7.134;2023-02-01T04:01:22;231.40;;;208.00;;
20067;SDS011;10194;50.824;7.134;2023-02-01T04:03:48;233.40;;;209.43;;
20067;SDS011;10194;50.824;7.134;2023-02-01T04:06:16;228.93;;;206.03;;
20067;SDS011;10194;50.824;7.134;2023-02-01T04:08:42;227.37;;;203.80;;
20067;SDS011;10194;50.824;7.134;2023-02-01T04:11:07;230.67;;;207.57;;
20067;SDS011;10194;50.824;7.134;2023-02-01T04:13:33;230.73;;;206.90;;
20067;SDS011;10194;50.824;7.134;2023-02-01T04:15:59;235.63;;;211.50;;
20067;SDS011;10194;50.824;7.134;2023-02-01T04:18:25;232.23;;;209.07;;
20067;SDS011;10194;50.824;7.134;2023-02-01T04:20:50;235.37;;;211.47;;
20067;SDS011;10194;50.824;7.134;2023-02-01T04:23:16;230.93;;;207.77;;
20067;SDS011;10194;50.824;7.134;2023-02-01T04:25:42;229.00;;;205.27;;
20067;SDS011;10194;50.824;7.134;2023-02-01T04:28:07;232.33;;;208.73;;
20067;SDS011;10194;50.824;7.134;2023-02-01T04:30:34;233.80;;;210.47;;
20067;SDS011;10194;50.824;7.134;2023-02-01T04:32:59;229.50;;;205.83;;
20067;SDS011;10194;50.824;7.134;2023-02-01T04:35:28;230.57;;;207.23;;
20067;SDS011;10194;50.824;7.134;2023-02-01T04:37:54;229.27;;;205.73;;
20067;SDS011;10194;50.824;7.134;2023-02-01T04:40:19;231.50;;;207.87;;
20067;SDS011;10194;50.824;7.134;2023-02-01T04:42:45;229.20;;;205.90;;
20067;SDS011;10194;50.824;7.134;2023-02-01T04:45:11;229.63;;;206.73;;
20067;SDS011;10194;50.824;7.134;2023-02-01T04:47:37;232.77;;;208.93;;
20067;SDS011;10194;50.824;7.134;2023-02-01T04:50:06;229.73;;;206.33;;
20067;SDS011;10194;50.824;7.134;2023-02-01T04:52:35;230.73;;;207.57;;
20067;SDS011;10194;50.824;7.134;2023-02-01T04:55:02;231.23;;;207.77;;
20067;SDS011;10194;50.824;7.134;2023-02-01T04:57:29;228.60;;;205.13;;
20067;SDS011;10194;50.824;7.134;2023-02-01T04:59:54;230.30;;;206.93;;
20067;SDS011;10194;50.824;7.134;2023-02-01T05:02:20;229.57;;;205.70;;
20067;SDS011;10194;50.824;7.134;2023-02-01T05:04:46;233.53;;;209.80;;
20067;SDS011;10194;50.824;7.134;2023-02-01T05:07:11;233.50;;;210.17;;
20067;SDS011;10194;50.824;7.134;2023-02-01T05:09:37;239.43;;;216.13;;
20067;SDS011;10194;50.824;7.134;2023-02-01T05:12:03;241.33;;;217.97;;
20067;SDS011;10194;50.824;7.134;2023-02-01T05:14:48;246.40;;;222.20;;
20067;SDS011;10194;50.824;7.134;2023-02-01T05:17:14;239.03;;;215.33;;
20067;SDS011;10194;50.824;7.134;2023-02-01T05:19:40;240.93;;;217.53;;
20067;SDS011;10194;50.824;7.134;2023-02-01T05:22:05;245.03;;;221.03;;
20067;SDS011;10194;50.824;7.134;2023-02-01T05:24:31;243.83;;;220.00;;
20067;SDS011;10194;50.824;7.134;2023-02-01T05:26:57;242.13;;;217.53;;
20067;SDS011;10194;50.824;7.134;2023-02-01T05:29:23;239.37;;;216.60;;
20067;SDS011;10194;50.824;7.134;2023-02-01T05:31:48;241.43;;;218.27;;
20067;SDS011;10194;50.824;7.134;2023-02-01T05:34:15;240.70;;;217.90;;
20067;SDS011;10194;50.824;7.134;2023-02-01T05:36:41;241.63;;;218.43;;
20067;SDS011;10194;50.824;7.134;2023-02-01T05:39:07;243.93;;;220.17;;
20067;SDS011;10194;50.824;7.134;2023-02-01T05:41:33;242.33;;;219.20;;
20067;SDS011;10194;50.824;7.134;2023-02-01T05:43:58;239.57;;;216.73;;
20067;SDS011;10194;50.824;7.134;2023-02-01T05:46:24;240.40;;;217.47;;
20067;SDS011;10194;50.824;7.134;2023-02-01T05:48:50;242.47;;;219.27;;
20067;SDS011;10194;50.824;7.134;2023-02-01T05:51:16;242.20;;;218.87;;
20067;SDS011;10194;50.824;7.134;2023-02-01T05:53:41;238.93;;;215.57;;
20067;SDS011;10194;50.824;7.134;2023-02-01T05:56:07;242.57;;;219.47;;
20067;SDS011;10194;50.824;7.134;2023-02-01T05:58:33;248.13;;;224.77;;
20067;SDS011;10194;50.824;7.134;2023-02-01T06:00:59;241.53;;;219.03;;
20067;SDS011;10194;50.824;7.134;2023-02-01T06:03:26;244.40;;;221.13;;
20067;SDS011;10194;50.824;7.134;2023-02-01T06:05:52;240.50;;;218.07;;
20067;SDS011;10194;50.824;7.134;2023-02-01T06:08:18;252.10;;;227.97;;
20067;SDS011;10194;50.824;7.134;2023-02-01T06:10:43;244.73;;;221.27;;
20067;SDS011;10194;50.824;7.134;2023-02-01T06:13:09;244.63;;;221.17;;
20067;SDS011;10194;50.824;7.134;2023-02-01T06:15:35;242.13;;;219.43;;
20067;SDS011;10194;50.824;7.134;2023-02-01T06:18:02;241.63;;;218.23;;
20067;SDS011;10194;50.824;7.134;2023-02-01T06:20:28;246.20;;;222.60;;
20067;SDS011;10194;50.824;7.134;2023-02-01T06:22:54;241.17;;;218.30;;
20067;SDS011;10194;50.824;7.134;2023-02-01T06:25:20;239.57;;;216.30;;
20067;SDS011;10194;50.824;7.134;2023-02-01T06:27:46;238.40;;;215.53;;
20067;SDS011;10194;50.824;7.134;2023-02-01T06:30:13;242.67;;;219.17;;
20067;SDS011;10194;50.824;7.134;2023-02-01T06:32:39;242.87;;;219.90;;
20067;SDS011;10194;50.824;7.134;2023-02-01T06:35:06;242.20;;;219.37;;
20067;SDS011;10194;50.824;7.134;2023-02-01T06:37:36;243.73;;;221.07;;
20067;SDS011;10194;50.824;7.134;2023-02-01T06:40:02;247.93;;;224.27;;
20067;SDS011;10194;50.824;7.134;2023-02-01T06:42:29;249.00;;;225.87;;
20067;SDS011;10194;50.824;7.134;2023-02-01T06:44:55;248.67;;;225.27;;
20067;SDS011;10194;50.824;7.134;2023-02-01T06:47:21;248.53;;;225.10;;
20067;SDS011;10194;50.824;7.134;2023-02-01T06:49:47;242.73;;;219.80;;
20067;SDS011;10194;50.824;7.134;2023-02-01T06:52:13;246.40;;;223.40;;
20067;SDS011;10194;50.824;7.134;2023-02-01T06:54:38;246.87;;;223.50;;
20067;SDS011;10194;50.824;7.134;2023-02-01T06:57:04;247.57;;;223.73;;
20067;SDS011;10194;50.824;7.134;2023-02-01T06:59:30;248.77;;;225.73;;
20067;SDS011;10194;50.824;7.134;2023-02-01T07:01:55;245.37;;;221.90;;
20067;SDS011;10194;50.824;7.134;2023-02-01T07:04:21;248.93;;;225.17;;
20067;SDS011;10194;50.824;7.134;2023-02-01T07:06:47;248.97;;;225.57;;
20067;SDS011;10194;50.824;7.134;2023-02-01T07:09:12;241.50;;;217.57;;
20067;SDS011;10194;50.824;7.134;2023-02-01T07:11:38;245.40;;;222.20;;
20067;SDS011;10194;50.824;7.134;2023-02-01T07:14:08;241.63;;;217.87;;
20067;SDS011;10194;50.824;7.134;2023-02-01T07:16:37;245.73;;;221.20;;
20067;SDS011;10194;50.824;7.134;2023-02-01T07:19:03;244.50;;;220.73;;
20067;SDS011;10194;50.824;7.134;2023-02-01T07:21:29;242.73;;;218.13;;
20067;SDS011;10194;50.824;7.134;2023-02-01T07:23:55;242.60;;;219.40;;
20067;SDS011;10194;50.824;7.134;2023-02-01T07:26:21;244.37;;;220.80;;
20067;SDS011;10194;50.824;7.134;2023-02-01T07:28:47;245.53;;;221.37;;
20067;SDS011;10194;50.824;7.134;2023-02-01T07:31:14;240.10;;;216.47;;
20067;SDS011;10194;50.824;7.134;2023-02-01T07:33:44;248.40;;;224.83;;
20067;SDS011;10194;50.824;7.134;2023-02-01T07:36:11;245.90;;;222.47;;
20067;SDS011;10194;50.824;7.134;2023-02-01T07:38:40;245.17;;;221.90;;
20067;SDS011;10194;50.824;7.134;2023-02-01T07:41:06;249.40;;;225.77;;
20067;SDS011;10194;50.824;7.134;2023-02-01T07:43:33;243.43;;;220.43;;
20067;SDS011;10194;50.824;7.134;2023-02-01T07:46:00;240.33;;;217.40;;
20067;SDS011;10194;50.824;7.134;2023-02-01T07:48:28;239.60;;;216.50;;
20067;SDS011;10194;50.824;7.134;2023-02-01T07:50:59;246.60;;;223.20;;
20067;SDS011;10194;50.824;7.134;2023-02-01T07:53:30;247.93;;;224.07;;
20067;SDS011;10194;50.824;7.134;2023-02-01T07:55:57;248.73;;;225.37;;
20067;SDS011;10194;50.824;7.134;2023-02-01T07:58:24;244.70;;;221.23;;
20067;SDS011;10194;50.824;7.134;2023-02-01T08:00:51;243.83;;;220.70;;
20067;SDS011;10194;50.824;7.134;2023-02-01T08:03:36;250.43;;;226.83;;
20067;SDS011;10194;50.824;7.134;2023-02-01T08:06:02;246.07;;;222.27;;
20067;SDS011;10194;50.824;7.134;2023-02-01T08:08:28;243.87;;;219.47;;
20067;SDS011;10194;50.824;7.134;2023-02-01T08:11:00;244.20;;;220.60;;
20067;SDS011;10194;50.824;7.134;2023-02-01T08:13:29;249.13;;;225.03;;
20067;SDS011;10194;50.824;7.134;2023-02-01T08:15:58;241.03;;;217.03;;
20067;SDS011;10194;50.824;7.134;2023-02-01T08:18:26;244.67;;;221.57;;
20067;SDS011;10194;50.824;7.134;2023-02-01T08:20:52;240.30;;;216.70;;
20067;SDS011;10194;50.824;7.134;2023-02-01T08:23:18;235.30;;;211.43;;
20067;SDS011;10194;50.824;7.134;2023-02-01T08:25:45;239.07;;;215.60;;
20067;SDS011;10194;50.824;7.134;2023-02-01T08:28:11;239.63;;;216.17;;
20067;SDS011;10194;50.824;7.134;2023-02-01T08:30:37;237.47;;;213.67;;
20067;SDS011;10194;50.824;7.134;2023-02-01T08:33:05;236.77;;;213.40;;
20067;SDS011;10194;50.824;7.134;2023-02-01T08:35:32;238.53;;;214.50;;
20067;SDS011;10194;50.824;7.134;2023-02-01T08:38:00;238.70;;;214.70;;
20067;SDS011;10194;50.824;7.134;2023-02-01T08:40:26;240.27;;;216.23;;
20067;SDS011;10194;50.824;7.134;2023-02-01T08:42:53;233.63;;;209.80;;
20067;SDS011;10194;50.824;7.134;2023-02-01T08:45:23;235.17;;;212.00;;
20067;SDS011;10194;50.824;7.134;2023-02-01T08:47:53;244.50;;;220.87;;
20067;SDS011;10194;50.824;7.134;2023-02-01T08:50:19;235.93;;;212.33;;
20067;SDS011;10194;50.824;7.134;2023-02-01T08:52:46;243.30;;;219.00;;
20067;SDS011;10194;50.824;7.134;2023-02-01T08:55:12;246.73;;;222.10;;
20067;SDS011;10194;50.824;7.134;2023-02-01T08:57:39;245.37;;;220.87;;
20067;SDS011;10194;50.824;7.134;2023-02-01T09:00:06;246.00;;;221.73;;
20067;SDS011;10194;50.824;7.134;2023-02-01T09:02:36;248.77;;;223.80;;
20067;SDS011;10194;50.824;7.134;2023-02-01T09:05:03;244.20;;;220.73;;
20067;SDS011;10194;50.824;7.134;2023-02-01T09:07:29;235.17;;;211.83;;
20067;SDS011;10194;50.824;7.134;2023-02-01T09:09:55;240.10;;;215.73;;
20067;SDS011;10194;50.824;7.134;2023-02-01T09:12:25;241.83;;;218.03;;
20067;SDS011;10194;50.824;7.134;2023-02-01T09:14:50;235.90;;;212.17;;
20067;SDS011;10194;50.824;7.134;2023-02-01T09:17:16;235.20;;;211.50;;
20067;SDS011;10194;50.824;7.134;2023-02-01T09:19:42;236.27;;;211.80;;
20067;SDS011;10194;50.824;7.134;2023-02-01T09:22:08;236.10;;;211.70;;
20067;SDS011;10194;50.824;7.134;2023-02-01T09:24:33;229.77;;;206.17;;
20067;SDS011;10194;50.824;7.134;2023-02-01T09:26:59;230.43;;;207.03;;
20067;SDS011;10194;50.824;7.134;2023-02-01T09:29:25;228.47;;;204.87;;
20067;SDS011;10194;50.824;7.134;2023-02-01T09:31:50;224.07;;;200.43;;
20067;SDS011;10194;50.824;7.134;2023-02-01T09:34:16;220.90;;;197.37;;
20067;SDS011;10194;50.824;7.134;2023-02-01T09:36:42;224.20;;;201.17;;
20067;SDS011;10194;50.824;7.134;2023-02-01T09:39:08;221.97;;;198.23;;
20067;SDS011;10194;50.824;7.134;2023-02-01T09:47:51;235.00;;;211.27;;
20067;SDS011;10194;50.824;7.134;2023-02-01T09:50:26;233.93;;;210.60;;
20067;SDS011;10194;50.824;7.134;2023-02-01T09:53:00;230.93;;;207.40;;
20067;SDS011;10194;50.824;7.134;2023-02-01T09:55:41;239.53;;;215.03;;
20067;SDS011;10194;50.824;7.134;2023-02-01T09:58:14;233.03;;;208.87;;
20067;SDS011;10194;50.824;7.134;2023-02-01T10:00:54;225.90;;;202.03;;
20067;SDS011;10194;50.824;7.134;2023-02-01T10:03:24;226.73;;;203.07;;
20067;SDS011;10194;50.824;7.134;2023-02-01T10:06:01;230.10;;;206.17;;
20067;SDS011;10194;50.824;7.134;2023-02-01T10:09:08;235.00;;;210.03;;
20067;SDS011;10194;50.824;7.134;2023-02-01T10:18:08;239.80;;;215.47;;
20067;SDS011;10194;50.824;7.134;2023-02-01T10:26:45;235.10;;;211.37;;
20067;SDS011;10194;50.824;7.134;2023-02-01T10:29:20;229.60;;;205.83;;
20067;SDS011;10194;50.824;7.134;2023-02-01T10:31:50;223.53;;;199.20;;
20067;SDS011;10194;50.824;7.134;2023-02-01T10:34:26;223.57;;;199.63;;
20067;SDS011;10194;50.824;7.134;2023-02-01T10:36:57;221.33;;;198.17;;
20067;SDS011;10194;50.824;7.134;2023-02-01T10:39:29;217.07;;;194.23;;
20067;SDS011;10194;50.824;7.134;2023-02-01T10:41:55;223.97;;;199.40;;
20067;SDS011;10194;50.824;7.134;2023-02-01T10:44:23;223.03;;;198.63;;
20067;SDS011;10194;50.824;7.134;2023-02-01T10:46:53;216.70;;;193.30;;
20067;SDS011;10194;50.824;7.134;2023-02-01T10:49:43;219.40;;;195.57;;
20067;SDS011;10194;50.824;7.134;2023-02-01T10:52:40;218.50;;;194.37;;
20067;SDS011;10194;50.824;7.134;2023-02-01T10:55:33;213.93;;;190.43;;
20067;SDS011;10194;50.824;7.134;2023-02-01T10:58:05;214.80;;;185.93;;
20067;SDS011;10194;50.824;7.134;2023-02-01T11:00:45;209.67;;;179.90;;
20067;SDS011;10194;50.824;7.134;2023-02-01T11:09:37;220.90;;;188.73;;
20067;SDS011;10194;50.824;7.134;2023-02-01T11:14:26;210.00;;;181.03;;
20067;SDS011;10194;50.824;7.134;2023-02-01T11:17:16;211.03;;;186.33;;
20067;SDS011;10194;50.824;7.134;2023-02-01T11:19:56;211.40;;;177.73;;
20067;SDS011;10194;50.824;7.134;2023-02-01T11:22:28;220.63;;;186.27;;
20067;SDS011;10194;50.824;7.134;2023-02-01T11:24:55;206.87;;;172.60;;
20067;SDS011;10194;50.824;7.134;2023-02-01T11:27:22;204.87;;;173.83;;
20067;SDS011;10194;50.824;7.134;2023-02-01T11:29:50;210.40;;;179.17;;
20067;SDS011;10194;50.824;7.134;2023-02-01T11:32:21;205.93;;;177.70;;
20067;SDS011;10194;50.824;7.134;2023-02-01T11:34:53;210.00;;;181.37;;
20067;SDS011;10194;50.824;7.134;2023-02-01T11:37:25;207.37;;;184.93;;
20067;SDS011;10194;50.824;7.134;2023-02-01T11:40:00;218.70;;;192.13;;
20067;SDS011;10194;50.824;7.134;2023-02-01T11:42:30;217.33;;;183.67;;
20067;SDS011;10194;50.824;7.134;2023-02-01T11:45:17;211.03;;;181.60;;
20067;SDS011;10194;50.824;7.134;2023-02-01T11:47:55;214.73;;;188.57;;
20067;SDS011;10194;50.824;7.134;2023-02-01T11:50:46;209.57;;;178.50;;
20067;SDS011;10194;50.824;7.134;2023-02-01T12:12:30;209.87;;;178.50;;
20067;SDS011;10194;50.824;7.134;2023-02-01T12:18:00;215.63;;;179.07;;
20067;SDS011;10194;50.824;7.134;2023-02-01T12:21:37;211.60;;;186.70;;
20067;SDS011;10194;50.824;7.134;2023-02-01T12:24:33;217.30;;;186.87;;
20067;SDS011;10194;50.824;7.134;2023-02-01T12:33:18;209.77;;;182.80;;
20067;SDS011;10194;50.824;7.134;2023-02-01T12:39:13;210.70;;;187.30;;
20067;SDS011;10194;50.824;7.134;2023-02-01T12:44:41;214.27;;;184.40;;
20067;SDS011;10194;50.824;7.134;2023-02-01T12:52:45;204.97;;;168.53;;
20067;SDS011;10194;50.824;7.134;2023-02-01T12:55:19;204.73;;;164.90;;
20067;SDS011;10194;50.824;7.134;2023-02-01T13:01:07;206.47;;;174.57;;
20067;SDS011;10194;50.824;7.134;2023-02-01T13:04:24;209.40;;;166.40;;
20067;SDS011;10194;50.824;7.134;2023-02-01T13:06:59;208.67;;;169.30;;
20067;SDS011;10194;50.824;7.134;2023-02-01T13:09:40;209.63;;;162.50;;
20067;SDS011;10194;50.824;7.134;2023-02-01T13:12:40;201.30;;;155.20;;
20067;SDS011;10194;50.824;7.134;2023-02-01T13:15:29;217.10;;;157.03;;
20067;SDS011;10194;50.824;7.134;2023-02-01T13:18:02;203.67;;;165.53;;
20067;SDS011;10194;50.824;7.134;2023-02-01T13:23:39;204.47;;;177.23;;
20067;SDS011;10194;50.824;7.134;2023-02-01T13:26:07;202.50;;;175.37;;
20067;SDS011;10194;50.824;7.134;2023-02-01T13:40:10;205.73;;;171.70;;
20067;SDS011;10194;50.824;7.134;2023-02-01T13:45:35;200.63;;;165.50;;
20067;SDS011;10194;50.824;7.134;2023-02-01T13:48:14;211.87;;;179.20;;
20067;SDS011;10194;50.824;7.134;2023-02-01T13:50:49;201.60;;;172.20;;
20067;SDS011;10194;50.824;7.134;2023-02-01T13:53:34;201.70;;;175.03;;
20067;SDS011;10194;50.824;7.134;2023-02-01T13:56:09;206.50;;;173.83;;
20067;SDS011;10194;50.824;7.134;2023-02-01T13:58:41;201.13;;;171.13;;
20067;SDS011;10194;50.824;7.134;2023-02-01T14:03:47;208.00;;;173.37;;
20067;SDS011;10194;50.824;7.134;2023-02-01T14:19:21;207.57;;;172.77;;
20067;SDS011;10194;50.824;7.134;2023-02-01T14:21:57;207.87;;;175.20;;
20067;SDS011;10194;50.824;7.134;2023-02-01T14:24:29;205.10;;;174.33;;
20067;SDS011;10194;50.824;7.134;2023-02-01T14:26:59;203.57;;;168.00;;
20067;SDS011;10194;50.824;7.134;2023-02-01T14:29:56;204.73;;;171.63;;
20067;SDS011;10194;50.824;7.134;2023-02-01T14:32:26;206.53;;;167.70;;
20067;SDS011;10194;50.824;7.134;2023-02-01T14:35:00;206.20;;;164.60;;
20067;SDS011;10194;50.824;7.134;2023-02-01T14:37:32;209.73;;;167.63;;
20067;SDS011;10194;50.824;7.134;2023-02-01T14:55:38;195.57;;;154.57;;
20067;SDS011;10194;50.824;7.134;2023-02-01T14:58:42;203.60;;;161.40;;
20067;SDS011;10194;50.824;7.134;2023-02-01T15:01:49;204.13;;;170.03;;
20067;SDS011;10194;50.824;7.134;2023-02-01T15:04:21;198.23;;;162.53;;
20067;SDS011;10194;50.824;7.134;2023-02-01T15:14:33;206.77;;;176.83;;
20067;SDS011;10194;50.824;7.134;2023-02-01T15:17:27;205.13;;;174.50;;
20067;SDS011;10194;50.824;7.134;2023-02-01T15:20:03;206.80;;;176.00;;
20067;SDS011;10194;50.824;7.134;2023-02-01T15:22:57;206.30;;;171.73;;
20067;SDS011;10194;50.824;7.134;2023-02-01T15:25:31;202.27;;;160.80;;
20067;SDS011;10194;50.824;7.134;2023-02-01T15:28:01;202.33;;;156.93;;
20067;SDS011;10194;50.824;7.134;2023-02-01T15:30:29;199.40;;;152.53;;
20067;SDS011;10194;50.824;7.134;2023-02-01T15:35:45;205.83;;;166.23;;
20067;SDS011;10194;50.824;7.134;2023-02-01T15:38:21;202.60;;;165.43;;
20067;SDS011;10194;50.824;7.134;2023-02-01T15:43:48;199.37;;;164.00;;
20067;SDS011;10194;50.824;7.134;2023-02-01T15:46:41;203.33;;;162.87;;
20067;SDS011;10194;50.824;7.134;2023-02-01T15:49:29;202.50;;;165.80;;
20067;SDS011;10194;50.824;7.134;2023-02-01T15:52:02;206.33;;;159.27;;
20067;SDS011;10194;50.824;7.134;2023-02-01T15:54:30;202.47;;;152.43;;
20067;SDS011;10194;50.824;7.134;2023-02-01T15:57:09;198.90;;;158.43;;
20067;SDS011;10194;50.824;7.134;2023-02-01T15:59:37;203.53;;;151.17;;
20067;SDS011;10194;50.824;7.134;2023-02-01T16:05:32;200.90;;;166.57;;
20067;SDS011;10194;50.824;7.134;2023-02-01T16:08:11;200.83;;;166.47;;
20067;SDS011;10194;50.824;7.134;2023-02-01T16:10:50;203.07;;;160.23;;
20067;SDS011;10194;50.824;7.134;2023-02-01T16:13:19;202.07;;;158.23;;
20067;SDS011;10194;50.824;7.134;2023-02-01T16:15:46;202.93;;;165.37;;
20067;SDS011;10194;50.824;7.134;2023-02-01T16:18:13;199.40;;;160.97;;
20067;SDS011;10194;50.824;7.134;2023-02-01T16:20:40;201.47;;;161.50;;
20067;SDS011;10194;50.824;7.134;2023-02-01T16:23:07;205.03;;;165.83;;
20067;SDS011;10194;50.824;7.134;2023-02-01T16:25:34;198.60;;;170.97;;
20067;SDS011;10194;50.824;7.134;2023-02-01T16:28:01;235.30;;;171.37;;
20067;SDS011;10194;50.824;7.134;2023-02-01T16:30:27;200.67;;;164.20;;
20067;SDS011;10194;50.824;7.134;2023-02-01T16:32:54;201.80;;;163.03;;
20067;SDS011;10194;50.824;7.134;2023-02-01T16:35:23;201.93;;;167.63;;
20067;SDS011;10194;50.824;7.134;2023-02-01T16:37:51;197.93;;;152.47;;
20067;SDS011;10194;50.824;7.134;2023-02-01T16:40:18;203.47;;;165.80;;
20067;SDS011;10194;50.824;7.134;2023-02-01T16:42:47;198.20;;;157.97;;
20067;SDS011;10194;50.824;7.134;2023-02-01T16:45:16;208.27;;;166.40;;
20067;SDS011;10194;50.824;7.134;2023-02-01T16:47:45;199.63;;;169.20;;
20067;SDS011;10194;50.824;7.134;2023-02-01T16:50:17;207.13;;;178.50;;
20067;SDS011;10194;50.824;7.134;2023-02-01T16:52:46;208.83;;;186.10;;
20067;SDS011;10194;50.824;7.134;2023-02-01T16:55:14;215.97;;;192.20;;
20067;SDS011;10194;50.824;7.134;2023-02-01T16:57:43;205.40;;;182.43;;
20067;SDS011;10194;50.824;7.134;2023-02-01T17:00:09;212.80;;;187.13;;
20067;SDS011;10194;50.824;7.134;2023-02-01T17:02:36;205.83;;;178.13;;
20067;SDS011;10194;50.824;7.134;2023-02-01T17:05:04;208.17;;;185.37;;
20067;SDS011;10194;50.824;7.134;2023-02-01T17:07:34;211.47;;;185.13;;
20067;SDS011;10194;50.824;7.134;2023-02-01T17:10:03;206.57;;;176.00;;
20067;SDS011;10194;50.824;7.134;2023-02-01T17:12:32;204.30;;;174.43;;
20067;SDS011;10194;50.824;7.134;2023-02-01T17:15:01;205.33;;;179.73;;
20067;SDS011;10194;50.824;7.134;2023-02-01T17:17:30;210.40;;;181.13;;